Time;durP1;ratioP1;P1;durP2;ratioP2;P2;SDS_P1;SDS_P2;PMS_P1;PMS_P2;Temp;Humidity;BMP_temperature;BMP_pressure;BME280_temperature;BME280_humidity;BME280_pressure;Samples;Min_cycle;Max_cycle;Signal;HPM_P1;HPM_P2
2023/07/24 00:00:50;;;;;;;2.72;2.45;;;20.80;99.90;;;;;;2092288;28;20400;-69
2023/07/24 00:01:50;;;;;;;4.75;3.05;;;20.90;99.90;;;;;;2090833;28;20063;-69
2023/07/24 00:02:53;;;;;;;2.75;2.55;;;20.80;99.90;;;;;;2091464;28;20029;-69
2023/07/24 00:03:56;;;;;;;2.30;2.10;;;20.90;99.90;;;;;;2093100;28;20028;-69
2023/07/24 00:04:56;;;;;;;3.92;2.05;;;20.90;99.90;;;;;;2092780;28;20020;-69
2023/07/24 00:06:00;;;;;;;3.13;2.58;;;20.90;99.90;;;;;;2093076;28;20052;-69
2023/07/24 00:07:00;;;;;;;5.35;2.13;;;20.80;99.90;;;;;;2092023;28;20035;-69
2023/07/24 00:08:01;;;;;;;3.03;2.15;;;20.90;99.90;;;;;;2092860;28;20029;-69
2023/07/24 00:09:02;;;;;;;2.55;2.35;;;20.90;99.90;;;;;;2092913;28;20013;-69
2023/07/24 00:10:04;;;;;;;2.50;2.30;;;20.80;99.90;;;;;;2091885;28;20077;-69
2023/07/24 00:11:07;;;;;;;2.60;2.40;;;20.80;99.90;;;;;;2091942;28;20454;-69
2023/07/24 00:12:08;;;;;;;2.42;2.20;;;20.80;99.90;;;;;;2091738;28;20021;-70
2023/07/24 00:13:09;;;;;;;2.83;2.45;;;20.80;99.90;;;;;;2091649;28;20036;-70
2023/07/24 00:14:09;;;;;;;4.10;2.53;;;20.80;99.90;;;;;;2092803;28;20029;-70
2023/07/24 00:15:10;;;;;;;3.83;2.00;;;20.70;99.90;;;;;;2090936;28;20076;-70
2023/07/24 00:16:11;;;;;;;3.65;2.30;;;20.80;99.90;;;;;;2091344;28;20079;-70
2023/07/24 00:17:11;;;;;;;2.45;2.25;;;20.70;99.90;;;;;;2091425;28;20090;-70
2023/07/24 00:18:12;;;;;;;2.03;1.83;;;20.70;99.90;;;;;;2089907;28;20033;-70
2023/07/24 00:19:12;;;;;;;3.70;2.33;;;20.70;99.90;;;;;;2091222;28;20025;-69
2023/07/24 00:20:13;;;;;;;3.75;1.98;;;20.70;99.90;;;;;;2090494;28;20037;-69
2023/07/24 00:21:13;;;;;;;3.08;2.55;;;20.70;99.90;;;;;;2091273;28;20500;-69
2023/07/24 00:22:14;;;;;;;2.63;2.30;;;20.70;99.90;;;;;;2091614;28;20036;-69
2023/07/24 00:23:14;;;;;;;2.28;1.98;;;20.70;99.90;;;;;;2090263;28;21381;-69
2023/07/24 00:24:15;;;;;;;2.13;1.92;;;20.70;99.90;;;;;;2091965;28;20017;-69
2023/07/24 00:25:15;;;;;;;2.65;2.45;;;20.70;99.90;;;;;;2092195;28;20055;-69
2023/07/24 00:26:16;;;;;;;2.50;2.30;;;20.70;99.90;;;;;;2091639;28;20028;-69
2023/07/24 00:27:16;;;;;;;2.60;2.40;;;20.70;99.90;;;;;;2092504;28;20031;-69
2023/07/24 00:28:17;;;;;;;5.43;2.20;;;20.70;99.90;;;;;;2092508;28;20111;-69
2023/07/24 00:29:17;;;;;;;2.25;2.15;;;20.60;99.90;;;;;;2092408;28;20025;-69
2023/07/24 00:30:18;;;;;;;3.65;2.65;;;20.60;99.90;;;;;;2090475;28;20025;-69
2023/07/24 00:31:18;;;;;;;4.75;2.40;;;20.60;99.90;;;;;;2091898;28;20488;-69
2023/07/24 00:32:19;;;;;;;5.43;2.53;;;20.60;99.90;;;;;;2093582;28;20094;-69
2023/07/24 00:33:20;;;;;;;2.20;2.00;;;20.60;99.90;;;;;;2093156;28;20017;-69
2023/07/24 00:34:21;;;;;;;3.45;2.20;;;20.60;99.90;;;;;;2092891;28;20029;-69
2023/07/24 00:35:21;;;;;;;3.53;2.33;;;20.60;99.90;;;;;;2092957;28;20554;-69
2023/07/24 00:36:22;;;;;;;2.55;2.28;;;20.60;99.90;;;;;;2091860;28;20023;-69
2023/07/24 00:37:22;;;;;;;3.53;2.70;;;20.60;99.90;;;;;;2093355;28;20025;-69
2023/07/24 00:38:23;;;;;;;5.47;2.38;;;20.60;99.90;;;;;;2092550;28;20019;-69
2023/07/24 00:39:24;;;;;;;2.83;2.50;;;20.50;99.90;;;;;;2092009;28;20017;-69
2023/07/24 00:40:24;;;;;;;2.40;2.20;;;20.50;99.90;;;;;;2091656;28;20021;-69
2023/07/24 00:41:25;;;;;;;3.72;2.60;;;20.50;99.90;;;;;;2091864;28;20045;-70
2023/07/24 00:42:25;;;;;;;2.83;2.60;;;20.50;99.90;;;;;;2091838;28;20074;-70
2023/07/24 00:43:26;;;;;;;5.35;2.60;;;20.40;99.90;;;;;;2090712;28;20033;-70
2023/07/24 00:44:26;;;;;;;3.22;2.80;;;20.40;99.90;;;;;;2090861;28;20044;-70
2023/07/24 00:45:27;;;;;;;2.65;2.45;;;20.40;99.90;;;;;;2091980;28;20029;-70
2023/07/24 00:46:31;;;;;;;3.22;2.60;;;20.40;99.90;;;;;;2092370;28;20032;-70
2023/07/24 00:47:32;;;;;;;3.85;2.55;;;20.40;99.90;;;;;;2092378;28;20558;-70
2023/07/24 00:48:33;;;;;;;4.18;2.53;;;20.40;99.90;;;;;;2093965;28;20024;-70
2023/07/24 00:49:34;;;;;;;3.10;2.80;;;20.40;99.90;;;;;;2093391;28;20032;-70
2023/07/24 00:50:37;;;;;;;3.42;2.78;;;20.40;99.90;;;;;;2092336;28;20388;-70
2023/07/24 00:51:37;;;;;;;4.05;2.50;;;20.40;99.90;;;;;;2092462;28;20032;-70
2023/07/24 00:52:39;;;;;;;3.90;1.92;;;20.40;99.90;;;;;;2094575;28;20120;-69
2023/07/24 00:53:39;;;;;;;2.63;2.13;;;20.40;99.90;;;;;;2093320;28;20025;-69
2023/07/24 00:54:40;;;;;;;3.55;2.70;;;20.50;99.90;;;;;;2092437;28;20021;-69
2023/07/24 00:55:41;;;;;;;5.65;2.75;;;20.40;99.90;;;;;;2094844;28;20030;-69
2023/07/24 00:56:44;;;;;;;3.58;2.80;;;20.50;99.90;;;;;;2092283;28;20032;-69
2023/07/24 00:57:45;;;;;;;2.35;2.15;;;20.50;99.90;;;;;;2093066;28;20036;-69
2023/07/24 00:58:45;;;;;;;2.65;2.45;;;20.40;99.90;;;;;;2093557;28;20051;-70
2023/07/24 00:59:46;;;;;;;3.15;2.35;;;20.40;99.90;;;;;;2090993;28;20036;-69
2023/07/24 01:00:46;;;;;;;3.10;2.65;;;20.40;99.90;;;;;;2094368;28;20082;-69
2023/07/24 01:01:47;;;;;;;2.63;2.42;;;20.50;99.90;;;;;;2091971;28;20092;-69
2023/07/24 01:02:48;;;;;;;3.53;2.58;;;20.40;99.90;;;;;;2091234;28;20036;-69
2023/07/24 01:03:49;;;;;;;4.18;2.40;;;20.40;99.90;;;;;;2091341;28;20120;-69
2023/07/24 01:04:50;;;;;;;4.10;2.20;;;20.40;99.90;;;;;;2092889;28;20024;-69
2023/07/24 01:05:50;;;;;;;5.30;2.30;;;20.50;99.90;;;;;;2092544;28;20021;-69
2023/07/24 01:06:51;;;;;;;3.65;2.50;;;20.40;99.90;;;;;;2094500;28;20024;-69
2023/07/24 01:07:54;;;;;;;3.30;2.70;;;20.40;99.90;;;;;;2093752;28;20504;-69
2023/07/24 01:08:55;;;;;;;3.10;2.10;;;20.40;99.90;;;;;;2094705;28;20016;-69
2023/07/24 01:09:55;;;;;;;3.38;2.35;;;20.40;99.90;;;;;;2092974;28;20032;-69
2023/07/24 01:10:59;;;;;;;2.30;2.10;;;20.40;99.90;;;;;;2095038;28;20021;-69
2023/07/24 01:12:16;;;;;;;4.28;3.20;;;20.40;99.90;;;;;;2093124;28;20031;-69
2023/07/24 01:13:24;;;;;;;2.60;2.40;;;20.40;99.90;;;;;;2091523;28;20023;-69
2023/07/24 01:14:44;;;;;;;3.45;2.00;;;20.40;99.90;;;;;;2093296;28;20519;-69
2023/07/24 01:15:48;;;;;;;2.25;2.05;;;20.40;99.90;;;;;;2095133;28;20052;-69
2023/07/24 01:16:50;;;;;;;3.42;2.63;;;20.40;99.90;;;;;;2091355;28;20431;-69
2023/07/24 01:17:59;;;;;;;3.50;2.40;;;20.40;99.90;;;;;;2093147;28;20108;-69
2023/07/24 01:19:02;;;;;;;2.75;2.42;;;20.40;99.90;;;;;;2092777;28;20021;-69
2023/07/24 01:20:07;;;;;;;4.80;2.42;;;20.40;99.90;;;;;;2091639;28;20021;-69
2023/07/24 01:21:11;;;;;;;2.70;2.50;;;20.40;99.90;;;;;;2093291;28;20028;-69
2023/07/24 01:22:26;;;;;;;3.38;2.17;;;20.40;99.90;;;;;;2094886;28;20040;-70
2023/07/24 01:23:33;;;;;;;3.25;2.53;;;20.40;99.90;;;;;;2091603;28;20536;-70
2023/07/24 01:24:40;;;;;;;2.90;2.60;;;20.40;99.90;;;;;;2091351;28;20513;-70
2023/07/24 01:25:57;;;;;;;4.50;2.67;;;20.40;99.90;;;;;;2095050;28;20048;-70
2023/07/24 01:26:58;;;;;;;3.03;2.70;;;20.30;99.90;;;;;;2094672;28;20416;-70
2023/07/24 01:27:58;;;;;;;2.97;2.30;;;20.30;99.90;;;;;;2090675;28;20071;-70
2023/07/24 01:28:59;;;;;;;3.45;2.70;;;20.30;99.90;;;;;;2093680;28;20035;-70
2023/07/24 01:29:59;;;;;;;2.63;2.42;;;20.30;99.90;;;;;;2092858;28;20037;-69
2023/07/24 01:31:00;;;;;;;3.55;2.38;;;20.30;99.90;;;;;;2094541;28;20537;-69
2023/07/24 01:32:00;;;;;;;4.85;2.80;;;20.30;99.90;;;;;;2093525;28;20025;-69
2023/07/24 01:33:02;;;;;;;3.20;2.72;;;20.30;99.90;;;;;;2093258;28;20055;-69
2023/07/24 01:34:02;;;;;;;4.43;3.05;;;20.30;99.90;;;;;;2091945;28;20039;-69
2023/07/24 01:35:04;;;;;;;4.43;3.15;;;20.30;99.90;;;;;;2092741;28;20028;-69
2023/07/24 01:36:05;;;;;;;3.75;2.70;;;20.30;99.90;;;;;;2093185;28;20083;-69
2023/07/24 01:37:06;;;;;;;3.47;2.60;;;20.30;99.90;;;;;;2092387;28;20032;-69
2023/07/24 01:38:07;;;;;;;3.45;2.75;;;20.30;99.90;;;;;;2091058;28;20492;-69
2023/07/24 01:39:08;;;;;;;2.50;2.30;;;20.30;99.90;;;;;;2091415;28;20047;-69
2023/07/24 01:40:10;;;;;;;3.65;2.92;;;20.20;99.90;;;;;;2093074;28;20380;-69
2023/07/24 01:41:11;;;;;;;3.78;3.17;;;20.20;99.90;;;;;;2091902;28;20032;-69
2023/07/24 01:42:12;;;;;;;3.75;2.42;;;20.20;99.90;;;;;;2092817;28;20025;-69
2023/07/24 01:43:14;;;;;;;2.83;2.50;;;20.20;99.90;;;;;;2092261;28;20074;-69
2023/07/24 01:44:15;;;;;;;6.25;3.40;;;20.20;99.90;;;;;;2093199;28;20024;-69
2023/07/24 01:45:15;;;;;;;3.13;2.42;;;20.20;99.90;;;;;;2092445;28;20032;-70
2023/07/24 01:46:16;;;;;;;2.60;2.40;;;20.20;99.90;;;;;;2092073;28;20362;-70
2023/07/24 01:47:16;;;;;;;2.80;2.50;;;20.20;99.90;;;;;;2092270;28;20481;-70
2023/07/24 01:48:17;;;;;;;4.05;2.50;;;20.20;99.90;;;;;;2091529;28;20025;-70
2023/07/24 01:49:17;;;;;;;3.38;3.03;;;20.20;99.90;;;;;;2092352;28;20134;-70
2023/07/24 01:50:18;;;;;;;2.83;2.60;;;20.20;99.90;;;;;;2091736;28;20057;-70
2023/07/24 01:51:19;;;;;;;4.10;2.92;;;20.20;99.90;;;;;;2092406;28;20027;-70
2023/07/24 01:52:19;;;;;;;2.75;2.55;;;20.20;99.90;;;;;;2093844;28;20029;-70
2023/07/24 01:53:20;;;;;;;5.13;2.70;;;20.20;99.90;;;;;;2092759;28;20028;-70
2023/07/24 01:54:20;;;;;;;3.63;2.58;;;20.20;99.90;;;;;;2093740;28;20017;-69
2023/07/24 01:55:21;;;;;;;3.33;2.95;;;20.10;99.90;;;;;;2091716;28;20024;-69
2023/07/24 01:56:22;;;;;;;3.55;2.90;;;20.20;99.90;;;;;;2093369;28;20389;-69
2023/07/24 01:57:22;;;;;;;2.80;2.47;;;20.20;99.90;;;;;;2093006;28;20099;-69
2023/07/24 01:58:23;;;;;;;2.83;2.63;;;20.20;99.90;;;;;;2093061;28;20025;-69
2023/07/24 01:59:24;;;;;;;3.33;2.97;;;20.20;99.90;;;;;;2094955;28;20392;-69
2023/07/24 02:00:24;;;;;;;2.95;2.72;;;20.20;99.90;;;;;;2094968;28;20376;-69
2023/07/24 02:01:25;;;;;;;4.25;2.80;;;20.20;99.90;;;;;;2094158;28;20024;-69
2023/07/24 02:02:25;;;;;;;2.95;2.65;;;20.20;99.90;;;;;;2093069;28;20100;-69
2023/07/24 02:03:26;;;;;;;2.78;2.58;;;20.20;99.90;;;;;;2091117;28;20017;-69
2023/07/24 02:04:26;;;;;;;3.00;2.50;;;20.20;99.90;;;;;;2094780;28;20089;-69
2023/07/24 02:05:27;;;;;;;3.58;2.72;;;20.20;99.90;;;;;;2090050;28;20112;-69
2023/07/24 02:06:27;;;;;;;3.08;2.78;;;20.20;99.90;;;;;;2091820;28;20528;-70
2023/07/24 02:07:28;;;;;;;3.35;2.55;;;20.20;99.90;;;;;;2095050;28;20048;-70
2023/07/24 02:08:28;;;;;;;2.47;2.28;;;20.20;99.90;;;;;;2092682;28;20025;-70
2023/07/24 02:09:29;;;;;;;3.00;2.40;;;20.20;99.90;;;;;;2090888;28;20020;-70
2023/07/24 02:10:30;;;;;;;7.10;2.97;;;20.20;99.90;;;;;;2092341;28;20100;-70
2023/07/24 02:11:30;;;;;;;3.00;2.70;;;20.10;99.90;;;;;;2096199;28;20103;-69
2023/07/24 02:12:31;;;;;;;2.30;2.15;;;20.20;99.90;;;;;;2094184;28;20020;-69
2023/07/24 02:13:31;;;;;;;3.13;2.60;;;20.10;99.90;;;;;;2093367;28;20057;-69
2023/07/24 02:14:32;;;;;;;4.78;2.83;;;20.10;99.90;;;;;;2091308;28;20013;-69
2023/07/24 02:15:33;;;;;;;5.20;3.17;;;20.10;99.90;;;;;;2091370;28;20071;-69
2023/07/24 02:16:33;;;;;;;2.35;2.15;;;20.10;99.90;;;;;;2092096;28;20106;-69
2023/07/24 02:17:34;;;;;;;2.50;2.30;;;20.10;99.90;;;;;;2091458;28;20016;-69
2023/07/24 02:18:34;;;;;;;2.90;2.60;;;20.10;99.90;;;;;;2093189;28;20044;-69
2023/07/24 02:19:35;;;;;;;3.90;2.90;;;20.10;99.90;;;;;;2092182;28;20074;-70
2023/07/24 02:20:35;;;;;;;4.53;2.97;;;20.10;99.90;;;;;;2091522;28;20049;-70
2023/07/24 02:21:36;;;;;;;3.63;3.10;;;20.10;99.90;;;;;;2094091;28;20380;-70
2023/07/24 02:22:36;;;;;;;3.53;3.00;;;20.10;99.90;;;;;;2090852;28;20025;-69
2023/07/24 02:23:37;;;;;;;4.22;2.97;;;20.10;99.90;;;;;;2090024;28;20112;-69
2023/07/24 02:24:37;;;;;;;4.20;3.00;;;20.10;99.90;;;;;;2094019;28;20070;-70
2023/07/24 02:25:38;;;;;;;4.15;2.83;;;20.10;99.90;;;;;;2092490;28;20444;-70
2023/07/24 02:26:38;;;;;;;4.25;2.67;;;20.10;99.90;;;;;;2093973;28;20025;-70
2023/07/24 02:27:39;;;;;;;6.13;3.00;;;20.10;99.90;;;;;;2092244;28;20021;-70
2023/07/24 02:28:39;;;;;;;3.20;2.90;;;20.00;99.90;;;;;;2092204;28;20063;-70
2023/07/24 02:29:40;;;;;;;3.03;2.72;;;20.00;99.90;;;;;;2091011;28;20516;-70
2023/07/24 02:30:40;;;;;;;4.00;2.70;;;20.00;99.90;;;;;;2091154;28;20046;-70
2023/07/24 02:31:41;;;;;;;5.07;3.08;;;20.00;99.90;;;;;;2091726;28;20016;-70
2023/07/24 02:32:41;;;;;;;3.40;2.90;;;20.00;99.90;;;;;;2090404;28;20052;-70
2023/07/24 02:33:42;;;;;;;5.65;3.40;;;20.00;99.90;;;;;;2092176;28;20032;-70
2023/07/24 02:34:43;;;;;;;3.38;2.80;;;20.00;99.90;;;;;;2094844;28;20059;-70
2023/07/24 02:35:44;;;;;;;3.10;2.83;;;20.00;99.90;;;;;;2092317;28;20143;-70
2023/07/24 02:36:44;;;;;;;4.68;2.80;;;20.00;99.90;;;;;;2090694;28;20054;-70
2023/07/24 02:37:45;;;;;;;3.65;2.90;;;20.00;99.90;;;;;;2091847;28;20076;-70
2023/07/24 02:38:45;;;;;;;3.35;3.05;;;20.00;99.90;;;;;;2091638;28;20029;-70
2023/07/24 02:39:46;;;;;;;3.30;3.00;;;20.00;99.90;;;;;;2090642;28;20040;-70
2023/07/24 02:40:47;;;;;;;9.43;3.67;;;20.00;99.90;;;;;;2090676;28;20063;-70
2023/07/24 02:41:50;;;;;;;3.90;3.53;;;20.00;99.90;;;;;;2092342;28;20039;-70
2023/07/24 02:42:51;;;;;;;3.55;2.95;;;20.00;99.90;;;;;;2092549;28;20490;-70
2023/07/24 02:43:51;;;;;;;3.72;2.80;;;20.10;99.90;;;;;;2091023;28;20087;-70
2023/07/24 02:44:53;;;;;;;3.38;3.08;;;20.00;99.90;;;;;;2093244;28;20161;-70
2023/07/24 02:45:53;;;;;;;3.60;2.90;;;20.00;99.90;;;;;;2091955;28;20104;-70
2023/07/24 02:46:54;;;;;;;3.47;3.17;;;20.10;99.90;;;;;;2091544;28;20029;-70
2023/07/24 02:47:54;;;;;;;5.20;3.13;;;20.00;99.90;;;;;;2091956;28;20464;-70
2023/07/24 02:48:55;;;;;;;4.07;3.15;;;20.00;99.90;;;;;;2092730;28;20021;-70
2023/07/24 02:49:55;;;;;;;3.97;3.58;;;20.10;99.90;;;;;;2092188;28;20033;-70
2023/07/24 02:50:56;;;;;;;2.88;2.67;;;20.00;99.90;;;;;;2092362;28;20025;-70
2023/07/24 02:51:56;;;;;;;3.40;3.10;;;20.10;99.90;;;;;;2090768;28;20025;-70
2023/07/24 02:52:57;;;;;;;3.42;3.13;;;20.10;99.90;;;;;;2091521;28;20484;-70
2023/07/24 02:53:57;;;;;;;3.67;3.20;;;20.10;99.90;;;;;;2091512;28;20036;-70
2023/07/24 02:54:58;;;;;;;5.10;3.10;;;20.10;99.90;;;;;;2091163;28;20052;-70
2023/07/24 02:56:00;;;;;;;3.28;2.92;;;20.10;99.90;;;;;;2091806;28;20082;-70
2023/07/24 02:57:02;;;;;;;3.97;3.20;;;20.10;99.90;;;;;;2092025;28;20029;-70
2023/07/24 02:58:02;;;;;;;3.63;3.28;;;20.10;99.90;;;;;;2091572;28;20113;-70
2023/07/24 02:59:03;;;;;;;5.07;3.75;;;20.10;99.90;;;;;;2092402;28;20032;-70
2023/07/24 03:00:04;;;;;;;3.78;3.35;;;20.10;99.90;;;;;;2091383;28;20060;-70
2023/07/24 03:01:06;;;;;;;3.65;3.30;;;20.10;99.90;;;;;;2093699;28;20020;-70
2023/07/24 03:02:07;;;;;;;4.00;3.60;;;20.10;99.90;;;;;;2091535;28;20499;-69
2023/07/24 03:03:07;;;;;;;4.45;3.50;;;20.10;99.90;;;;;;2090789;28;20395;-69
2023/07/24 03:04:08;;;;;;;3.25;2.95;;;20.10;99.90;;;;;;2092642;28;20020;-70
2023/07/24 03:05:09;;;;;;;4.43;3.40;;;20.10;99.90;;;;;;2091617;28;20071;-69
2023/07/24 03:06:09;;;;;;;3.95;3.50;;;20.10;99.90;;;;;;2093150;28;20025;-70
2023/07/24 03:07:10;;;;;;;7.88;3.55;;;20.20;99.90;;;;;;2091988;28;20484;-70
2023/07/24 03:08:10;;;;;;;4.85;3.70;;;20.20;99.90;;;;;;2091760;28;20024;-70
2023/07/24 03:09:11;;;;;;;3.80;3.40;;;20.20;99.90;;;;;;2092601;28;20051;-70
2023/07/24 03:10:11;;;;;;;4.47;3.38;;;20.20;99.90;;;;;;2089838;28;20107;-70
2023/07/24 03:11:12;;;;;;;3.70;3.35;;;20.20;99.90;;;;;;2091803;28;20048;-70
2023/07/24 03:12:12;;;;;;;7.45;3.75;;;20.20;99.90;;;;;;2090852;28;20024;-70
2023/07/24 03:13:13;;;;;;;6.40;3.50;;;20.10;99.90;;;;;;2092270;28;20025;-70
2023/07/24 03:14:13;;;;;;;4.15;3.55;;;20.20;99.90;;;;;;2091328;28;20449;-69
2023/07/24 03:15:14;;;;;;;3.72;3.42;;;20.20;99.90;;;;;;2093261;28;20028;-69
2023/07/24 03:16:17;;;;;;;5.32;3.45;;;20.20;99.90;;;;;;2092911;28;20056;-70
2023/07/24 03:17:17;;;;;;;6.10;3.50;;;20.20;99.90;;;;;;2092936;28;20655;-70
2023/07/24 03:18:18;;;;;;;3.50;3.20;;;20.20;99.90;;;;;;2089582;28;20036;-70
2023/07/24 03:19:20;;;;;;;3.70;3.30;;;20.20;99.90;;;;;;2091075;28;20039;-70
2023/07/24 03:20:20;;;;;;;8.18;3.90;;;20.20;99.90;;;;;;2090869;28;20035;-69
2023/07/24 03:21:21;;;;;;;4.97;3.60;;;20.20;99.90;;;;;;2089601;28;20111;-69
2023/07/24 03:22:22;;;;;;;7.00;4.20;;;20.20;99.90;;;;;;2093001;28;20054;-69
2023/07/24 03:23:22;;;;;;;4.55;3.63;;;20.20;99.90;;;;;;2091845;28;20051;-69
2023/07/24 03:24:23;;;;;;;7.03;3.88;;;20.20;99.90;;;;;;2091385;28;20051;-69
2023/07/24 03:25:23;;;;;;;5.95;4.03;;;20.30;99.90;;;;;;2091827;28;20078;-69
2023/07/24 03:26:24;;;;;;;4.15;3.72;;;20.30;99.90;;;;;;2093293;28;20029;-69
2023/07/24 03:27:24;;;;;;;7.50;3.80;;;20.30;99.90;;;;;;2092674;28;20025;-69
2023/07/24 03:28:25;;;;;;;6.20;4.10;;;20.30;99.90;;;;;;2091799;28;20472;-69
2023/07/24 03:29:27;;;;;;;5.75;3.65;;;20.30;99.90;;;;;;2092727;28;20080;-69
2023/07/24 03:30:27;;;;;;;6.43;3.70;;;20.30;99.90;;;;;;2090797;28;20044;-69
2023/07/24 03:31:28;;;;;;;6.88;4.15;;;20.30;99.90;;;;;;2093444;28;20114;-69
2023/07/24 03:32:28;;;;;;;4.20;3.33;;;20.30;99.90;;;;;;2090774;28;20025;-69
2023/07/24 03:33:29;;;;;;;5.18;3.70;;;20.30;99.90;;;;;;2091944;28;20061;-70
2023/07/24 03:34:29;;;;;;;6.43;3.78;;;20.30;99.90;;;;;;2093496;28;20070;-70
2023/07/24 03:35:30;;;;;;;5.38;3.78;;;20.30;99.90;;;;;;2091349;28;20025;-69
2023/07/24 03:36:30;;;;;;;4.47;3.88;;;20.30;99.90;;;;;;2091085;28;20062;-69
2023/07/24 03:37:32;;;;;;;5.28;4.05;;;20.30;99.90;;;;;;2090428;28;20036;-69
2023/07/24 03:38:32;;;;;;;6.82;3.95;;;20.30;99.90;;;;;;2091491;28;20449;-69
2023/07/24 03:39:33;;;;;;;4.30;3.92;;;20.30;99.90;;;;;;2090129;28;20422;-69
2023/07/24 03:40:33;;;;;;;5.15;3.80;;;20.30;99.90;;;;;;2090770;28;20107;-69
2023/07/24 03:41:34;;;;;;;6.03;4.63;;;20.30;99.90;;;;;;2089563;28;20048;-69
2023/07/24 03:42:34;;;;;;;6.65;4.15;;;20.30;99.90;;;;;;2091215;28;20016;-69
2023/07/24 03:43:35;;;;;;;4.53;3.90;;;20.30;99.90;;;;;;2091128;28;20048;-69
2023/07/24 03:44:35;;;;;;;6.28;4.03;;;20.30;99.90;;;;;;2091090;28;20089;-69
2023/07/24 03:45:37;;;;;;;6.20;4.50;;;20.30;99.90;;;;;;2091563;28;20024;-70
2023/07/24 03:46:37;;;;;;;4.70;4.07;;;20.30;99.90;;;;;;2091666;28;20376;-70
2023/07/24 03:47:38;;;;;;;4.80;4.13;;;20.30;99.90;;;;;;2091722;28;20016;-70
2023/07/24 03:48:38;;;;;;;4.97;4.15;;;20.30;99.90;;;;;;2093335;28;20027;-70
2023/07/24 03:49:39;;;;;;;6.78;4.00;;;20.30;99.90;;;;;;2089007;28;20032;-70
2023/07/24 03:50:40;;;;;;;4.43;3.78;;;20.30;99.90;;;;;;2093383;28;20016;-70
2023/07/24 03:51:41;;;;;;;6.90;4.38;;;20.30;99.90;;;;;;2091152;28;20036;-70
2023/07/24 03:52:41;;;;;;;5.25;3.80;;;20.30;99.90;;;;;;2091019;28;20616;-70
2023/07/24 03:53:42;;;;;;;6.55;4.40;;;20.30;99.90;;;;;;2092536;28;20052;-70
2023/07/24 03:54:44;;;;;;;7.32;4.25;;;20.30;99.90;;;;;;2093080;28;20078;-70
2023/07/24 03:55:45;;;;;;;4.38;3.97;;;20.30;99.90;;;;;;2090896;28;20070;-70
2023/07/24 03:56:46;;;;;;;4.40;3.97;;;20.30;99.90;;;;;;2090925;28;20037;-70
2023/07/24 03:57:46;;;;;;;3.88;3.58;;;20.30;99.90;;;;;;2090558;28;20061;-70
2023/07/24 03:58:47;;;;;;;4.82;4.22;;;20.30;99.90;;;;;;2089419;28;20473;-70
2023/07/24 03:59:47;;;;;;;4.30;3.90;;;20.30;99.90;;;;;;2091615;28;20167;-70
2023/07/24 04:00:48;;;;;;;6.45;4.15;;;20.30;99.90;;;;;;2090593;28;20036;-70
2023/07/24 04:01:48;;;;;;;5.63;4.13;;;20.30;99.90;;;;;;2091519;28;20111;-70
2023/07/24 04:02:49;;;;;;;5.13;4.00;;;20.30;99.90;;;;;;2091986;28;20043;-70
2023/07/24 04:03:50;;;;;;;5.65;3.50;;;20.30;99.90;;;;;;2091979;28;20460;-70
2023/07/24 04:04:50;;;;;;;6.00;3.72;;;20.30;99.90;;;;;;2090855;28;20032;-70
2023/07/24 04:05:51;;;;;;;4.45;3.95;;;20.40;99.90;;;;;;2092767;28;20021;-70
2023/07/24 04:06:51;;;;;;;6.80;3.88;;;20.40;99.90;;;;;;2091863;28;20024;-70
2023/07/24 04:07:53;;;;;;;4.60;4.13;;;20.40;99.90;;;;;;2090719;28;20020;-70
2023/07/24 04:08:53;;;;;;;4.20;3.80;;;20.40;99.90;;;;;;2090887;28;20108;-70
2023/07/24 04:09:54;;;;;;;4.60;3.58;;;20.40;99.90;;;;;;2090451;28;20028;-70
2023/07/24 04:10:57;;;;;;;6.75;4.95;;;20.40;99.90;;;;;;2090880;28;20031;-70
2023/07/24 04:11:58;;;;;;;4.85;3.97;;;20.40;99.90;;;;;;2091001;28;20025;-70
2023/07/24 04:12:58;;;;;;;5.45;4.18;;;20.40;99.90;;;;;;2091498;28;20526;-70
2023/07/24 04:13:59;;;;;;;4.78;3.58;;;20.40;99.90;;;;;;2090268;28;20175;-70
2023/07/24 04:14:59;;;;;;;5.55;4.00;;;20.40;99.90;;;;;;2091279;28;20058;-70
2023/07/24 04:16:00;;;;;;;5.93;3.90;;;20.40;99.90;;;;;;2092513;28;20048;-70
2023/07/24 04:17:00;;;;;;;5.85;4.50;;;20.40;99.90;;;;;;2091687;28;20070;-70
2023/07/24 04:18:01;;;;;;;4.07;3.63;;;20.40;99.90;;;;;;2091692;28;20675;-70
2023/07/24 04:19:02;;;;;;;4.93;3.92;;;20.40;99.90;;;;;;2092646;28;20021;-70
2023/07/24 04:20:03;;;;;;;4.80;4.38;;;20.40;99.90;;;;;;2092906;28;20033;-70
2023/07/24 04:21:03;;;;;;;5.18;4.38;;;20.40;99.90;;;;;;2095211;28;20083;-70
2023/07/24 04:22:04;;;;;;;6.65;4.30;;;20.40;99.90;;;;;;2095178;28;20123;-70
2023/07/24 04:23:04;;;;;;;5.30;4.25;;;20.40;99.90;;;;;;2092311;28;20029;-70
2023/07/24 04:24:05;;;;;;;4.68;4.10;;;20.40;99.90;;;;;;2091780;28;20155;-70
2023/07/24 04:25:06;;;;;;;8.13;3.90;;;20.40;99.90;;;;;;2092588;28;20031;-70
2023/07/24 04:26:07;;;;;;;7.60;4.32;;;20.40;99.90;;;;;;2093393;28;20040;-70
2023/07/24 04:27:07;;;;;;;4.57;4.18;;;20.50;99.90;;;;;;2091970;28;20021;-70
2023/07/24 04:28:08;;;;;;;5.10;4.13;;;20.50;99.90;;;;;;2092308;28;20025;-70
2023/07/24 04:29:08;;;;;;;5.57;4.13;;;20.50;99.90;;;;;;2091724;28;20029;-70
2023/07/24 04:30:09;;;;;;;6.22;4.20;;;20.40;99.90;;;;;;2090660;28;20438;-69
2023/07/24 04:31:10;;;;;;;4.72;4.10;;;20.50;99.90;;;;;;2094740;28;20021;-69
2023/07/24 04:32:10;;;;;;;8.65;3.70;;;20.50;99.90;;;;;;2092079;28;20025;-70
2023/07/24 04:33:11;;;;;;;6.57;4.60;;;20.40;99.90;;;;;;2092105;28;20032;-70
2023/07/24 04:34:11;;;;;;;6.47;4.45;;;20.40;99.90;;;;;;2093861;28;21403;-70
2023/07/24 04:35:12;;;;;;;4.47;3.80;;;20.40;99.90;;;;;;2093089;28;20036;-70
2023/07/24 04:36:12;;;;;;;5.60;4.00;;;20.40;99.90;;;;;;2091950;28;20055;-70
2023/07/24 04:37:13;;;;;;;5.40;4.40;;;20.40;99.90;;;;;;2094707;28;20024;-70
2023/07/24 04:38:13;;;;;;;5.43;3.78;;;20.50;99.90;;;;;;2093479;28;20095;-70
2023/07/24 04:39:14;;;;;;;4.63;4.00;;;20.40;99.90;;;;;;2090692;28;20111;-70
2023/07/24 04:40:14;;;;;;;7.00;4.30;;;20.40;99.90;;;;;;2092419;28;20036;-70
2023/07/24 04:41:15;;;;;;;6.10;4.55;;;20.40;99.90;;;;;;2091238;28;20025;-70
2023/07/24 04:42:16;;;;;;;3.95;3.60;;;20.40;99.90;;;;;;2093245;28;20109;-70
2023/07/24 04:43:16;;;;;;;6.00;3.92;;;20.40;99.90;;;;;;2094298;28;20109;-70
2023/07/24 04:44:17;;;;;;;4.50;3.90;;;20.50;99.90;;;;;;2093750;28;20071;-70
2023/07/24 04:45:18;;;;;;;3.92;3.53;;;20.40;99.90;;;;;;2092822;28;20465;-70
2023/07/24 04:46:18;;;;;;;4.35;3.95;;;20.40;99.90;;;;;;2092210;28;20021;-70
2023/07/24 04:47:19;;;;;;;7.50;4.28;;;20.40;99.90;;;;;;2092796;28;20020;-70
2023/07/24 04:48:19;;;;;;;6.53;4.40;;;20.40;99.90;;;;;;2093746;28;20024;-70
2023/07/24 04:49:20;;;;;;;5.70;4.50;;;20.40;99.90;;;;;;2093155;28;20473;-70
2023/07/24 04:50:20;;;;;;;4.38;3.83;;;20.40;99.90;;;;;;2093366;28;20135;-70
2023/07/24 04:51:21;;;;;;;4.78;4.00;;;20.40;99.90;;;;;;2094663;28;20029;-70
2023/07/24 04:52:21;;;;;;;6.70;4.55;;;20.50;99.90;;;;;;2093178;28;20032;-70
2023/07/24 04:53:23;;;;;;;4.50;4.10;;;20.40;99.90;;;;;;2092630;28;20521;-70
2023/07/24 04:54:23;;;;;;;6.78;4.53;;;20.50;99.90;;;;;;2092825;28;20021;-70
2023/07/24 04:55:24;;;;;;;6.78;4.30;;;20.50;99.90;;;;;;2091273;28;20021;-70
2023/07/24 04:56:25;;;;;;;6.35;4.43;;;20.50;99.90;;;;;;2093683;28;20024;-70
2023/07/24 04:57:25;;;;;;;5.55;4.10;;;20.50;99.90;;;;;;2093457;28;20067;-70
2023/07/24 04:58:26;;;;;;;5.55;3.92;;;20.50;99.90;;;;;;2093228;28;20524;-70
2023/07/24 04:59:26;;;;;;;4.97;4.35;;;20.50;99.90;;;;;;2093520;28;20051;-70
2023/07/24 05:00:27;;;;;;;6.97;5.00;;;20.50;99.90;;;;;;2092212;28;20028;-70
2023/07/24 05:01:27;;;;;;;3.88;3.58;;;20.50;99.90;;;;;;2093943;28;20108;-70
2023/07/24 05:02:28;;;;;;;7.28;4.78;;;20.50;99.90;;;;;;2092149;28;20039;-70
2023/07/24 05:03:28;;;;;;;8.40;4.70;;;20.50;99.90;;;;;;2091897;28;20024;-70
2023/07/24 05:04:29;;;;;;;4.47;3.78;;;20.50;99.90;;;;;;2092970;28;20055;-70
2023/07/24 05:05:31;;;;;;;6.25;4.55;;;20.50;99.90;;;;;;2091878;28;20469;-70
2023/07/24 05:06:31;;;;;;;7.55;4.10;;;20.50;99.90;;;;;;2093198;28;20025;-70
2023/07/24 05:07:32;;;;;;;7.10;4.25;;;20.50;99.90;;;;;;2093195;28;20033;-70
2023/07/24 05:08:33;;;;;;;5.93;4.50;;;20.50;99.90;;;;;;2094137;28;20453;-70
2023/07/24 05:09:33;;;;;;;5.78;4.30;;;20.50;99.90;;;;;;2093373;28;20016;-69
2023/07/24 05:10:37;;;;;;;6.15;4.60;;;20.50;99.90;;;;;;2093629;28;20537;-69
2023/07/24 05:11:37;;;;;;;6.15;4.72;;;20.50;99.90;;;;;;2091426;28;20278;-69
2023/07/24 05:12:41;;;;;;;4.97;4.47;;;20.50;99.90;;;;;;2092476;28;20024;-70
2023/07/24 05:13:41;;;;;;;5.28;4.35;;;20.50;99.90;;;;;;2095085;28;20447;-70
2023/07/24 05:14:42;;;;;;;5.22;4.18;;;20.50;99.90;;;;;;2091812;28;20063;-70
2023/07/24 05:15:42;;;;;;;6.60;4.70;;;20.50;99.90;;;;;;2092248;28;20021;-70
2023/07/24 05:16:43;;;;;;;7.55;5.20;;;20.50;99.90;;;;;;2092284;28;20112;-70
2023/07/24 05:17:44;;;;;;;7.70;4.90;;;20.50;99.90;;;;;;2094736;28;20079;-70
2023/07/24 05:18:44;;;;;;;5.68;4.72;;;20.50;99.90;;;;;;2093600;28;20411;-70